Terminal Aerodrome Forecast
Issued by NWS

Home | Current Version | Previous Version | Text Only | Print | Product List | Glossary On
Versions: 1 2 3 4 5 6 7 8 9 10 11 12 13 14
000
FTAK31 PANC 090539
TAFAVD
TAF
PAVD 090539Z 0906/1006 VRB03KT 3/4SM -SN BKN005 OVC010
      TEMPO 0908/0912 4SM -SN BKN010
     FM091200 08006KT P6SM VCFG BKN005 BKN010
     FM091900 08006KT P6SM BKN025
     FM092300 08011G22KT P6SM SCT050
      AMD LTD TO CLD VIS AND WIND=

USA.gov is the U.S. government's official web portal to all federal, state and local government web resources and services.